createdAt,value
2023-12-09T00:01:11.604Z,97046.47
2023-12-09T00:03:38.449Z,97047.91
2023-12-09T00:06:05.142Z,97050.38
2023-12-09T00:08:31.676Z,97050.56
2023-12-09T00:10:58.159Z,97053.44
2023-12-09T00:13:24.665Z,97058.13
2023-12-09T00:15:51.110Z,97068.31
2023-12-09T00:18:17.803Z,97068.50
2023-12-09T00:20:44.417Z,97070.88
2023-12-09T00:23:10.899Z,97071.72
2023-12-09T00:25:37.388Z,97072.75
2023-12-09T00:28:03.857Z,97082.16
2023-12-09T00:30:30.395Z,97075.84
2023-12-09T00:32:56.997Z,97070.38
2023-12-09T00:35:23.644Z,97074.03
2023-12-09T00:37:50.118Z,97075.66
2023-12-09T00:40:16.612Z,97080.56
2023-12-09T00:42:43.206Z,97077.66
2023-12-09T00:45:09.741Z,97070.75
2023-12-09T00:47:36.269Z,97077.06
2023-12-09T00:50:02.759Z,97075.66
2023-12-09T00:52:29.387Z,97073.44
2023-12-09T00:54:56.090Z,97080.16
2023-12-09T00:57:22.649Z,97082.41
2023-12-09T00:59:49.361Z,97080.75
2023-12-09T01:02:15.908Z,97087.28
2023-12-09T01:04:42.406Z,97078.47
2023-12-09T01:07:08.945Z,97092.72
2023-12-09T01:09:35.459Z,97084.34
2023-12-09T01:12:02.002Z,97074.63
2023-12-09T01:14:28.456Z,97083.16
2023-12-09T01:16:54.987Z,97085.63
2023-12-09T01:19:21.495Z,97084.19
2023-12-09T01:21:47.982Z,97083.41
2023-12-09T01:24:14.503Z,97080.16
2023-12-09T01:26:41.094Z,97071.78
2023-12-09T01:29:07.560Z,97078.47
2023-12-09T01:31:34.146Z,97077.38
2023-12-09T01:34:00.858Z,97079.69
2023-12-09T01:36:29.457Z,97070.88
2023-12-09T01:38:56.038Z,97060.38
2023-12-09T01:41:22.641Z,97061.84
2023-12-09T01:43:49.108Z,97059.66
2023-12-09T01:46:15.601Z,97050.50
2023-12-09T01:48:42.722Z,97040.22
2023-12-09T01:51:09.425Z,97044.09
2023-12-09T01:53:35.970Z,97048.41
2023-12-09T01:56:02.521Z,97052.28
2023-12-09T01:58:28.984Z,97047.06
2023-12-09T02:00:55.490Z,97049.16
2023-12-09T02:03:22.001Z,97048.94
2023-12-09T02:08:14.956Z,97053.38
2023-12-09T02:10:41.423Z,97052.91
2023-12-09T02:13:07.913Z,97047.06
2023-12-09T02:15:34.427Z,97050.56
2023-12-09T02:18:01.025Z,97035.69
2023-12-09T02:20:27.600Z,97040.13
2023-12-09T02:22:54.056Z,97044.22
2023-12-09T02:25:20.528Z,97033.16
2023-12-09T02:27:46.954Z,97036.25
2023-12-09T02:30:13.446Z,97036.25
2023-12-09T02:32:41.275Z,97031.59
2023-12-09T02:35:07.754Z,97027.94
2023-12-09T02:37:34.492Z,97020.34
2023-12-09T02:40:01.004Z,97026.66
2023-12-09T02:42:27.861Z,97021.19
2023-12-09T02:44:54.558Z,97021.22
2023-12-09T02:47:21.016Z,97006.75
2023-12-09T02:49:47.522Z,96999.69
2023-12-09T02:52:14.032Z,97004.97
2023-12-09T02:54:40.579Z,97002.31
2023-12-09T02:57:07.098Z,97013.72
2023-12-09T02:59:33.601Z,97008.81
2023-12-09T03:02:00.052Z,97002.53
2023-12-09T03:04:26.606Z,96997.88
2023-12-09T03:06:53.090Z,97008.16
2023-12-09T03:09:19.601Z,97009.25
2023-12-09T03:11:46.076Z,97001.94
2023-12-09T03:14:12.606Z,97000.69
2023-12-09T03:16:39.118Z,96990.94
2023-12-09T03:19:05.714Z,96994.38
2023-12-09T03:21:32.283Z,97000.50
2023-12-09T03:23:58.809Z,97008.44
2023-12-09T03:26:25.313Z,97003.75
2023-12-09T03:28:51.835Z,96997.84
2023-12-09T03:31:18.271Z,97011.91
2023-12-09T03:33:44.859Z,97007.63
2023-12-09T03:36:11.401Z,97002.75
2023-12-09T03:38:37.903Z,97002.72
2023-12-09T03:41:04.320Z,97009.41
2023-12-09T03:43:30.875Z,97009.25
2023-12-09T03:45:57.362Z,97018.00
2023-12-09T03:48:23.954Z,97010.88
2023-12-09T03:50:50.563Z,97019.25
2023-12-09T03:53:17.018Z,97021.06
2023-12-09T03:55:43.469Z,97026.97
2023-12-09T03:58:09.972Z,97030.03
2023-12-09T04:00:36.430Z,97018.81
2023-12-09T04:03:02.997Z,97021.06
2023-12-09T04:05:29.538Z,97019.66
2023-12-09T04:07:56.040Z,97010.66
2023-12-09T04:10:22.484Z,97016.38
2023-12-09T04:12:49.149Z,97011.25
2023-12-09T04:15:15.638Z,97012.66
2023-12-09T04:17:42.247Z,97010.03
2023-12-09T04:20:08.970Z,97014.91
2023-12-09T04:22:35.688Z,97008.88
2023-12-09T04:25:03.452Z,97011.25
2023-12-09T04:27:29.994Z,97016.94
2023-12-09T04:29:56.574Z,97009.25
2023-12-09T04:32:23.098Z,97007.97
2023-12-09T04:34:49.598Z,97014.50
2023-12-09T04:37:16.052Z,97008.19
2023-12-09T04:39:42.573Z,97007.16
2023-12-09T04:42:09.155Z,97004.13
2023-12-09T04:44:35.703Z,96994.38
2023-12-09T04:47:03.888Z,96995.00
2023-12-09T04:49:32.701Z,96980.94
2023-12-09T04:51:59.168Z,96983.59
2023-12-09T04:54:25.653Z,96981.53
2023-12-09T04:56:52.222Z,96986.06
2023-12-09T04:59:18.677Z,96986.19
2023-12-09T05:01:45.119Z,96990.50
2023-12-09T05:04:11.693Z,96986.47
2023-12-09T05:06:38.269Z,96996.56
2023-12-09T05:09:04.957Z,96997.34
2023-12-09T05:11:31.551Z,96992.00
2023-12-09T05:13:58.004Z,96993.22
2023-12-09T05:16:31.686Z,96974.38
2023-12-09T05:18:58.321Z,96968.69
2023-12-09T05:21:35.077Z,96958.66
2023-12-09T05:24:02.881Z,96960.88
2023-12-09T05:26:29.355Z,96962.19
2023-12-09T05:28:55.794Z,96969.38
2023-12-09T05:31:22.247Z,96966.72
2023-12-09T05:33:48.806Z,96965.94
2023-12-09T05:36:15.401Z,96966.13
2023-12-09T05:38:41.860Z,96968.28
2023-12-09T05:41:08.357Z,96962.94
2023-12-09T05:43:34.840Z,96963.75
2023-12-09T05:46:03.787Z,96945.22
2023-12-09T05:48:31.914Z,96940.56
2023-12-09T05:50:58.590Z,96942.38
2023-12-09T05:53:25.158Z,96937.56
2023-12-09T05:55:51.635Z,96926.97
2023-12-09T05:58:18.153Z,96924.91
2023-12-09T06:00:44.662Z,96931.81
2023-12-09T06:03:11.274Z,96937.13
2023-12-09T06:05:37.781Z,96949.38
2023-12-09T06:08:04.246Z,96948.34
2023-12-09T06:10:30.716Z,96945.94
2023-12-09T06:12:57.199Z,96944.09
2023-12-09T06:15:23.685Z,96926.00
2023-12-09T06:17:50.674Z,96936.31
2023-12-09T06:20:17.270Z,96941.03
2023-12-09T06:22:43.784Z,96917.16
2023-12-09T06:25:10.266Z,96918.00
2023-12-09T06:27:36.800Z,96928.19
2023-12-09T06:30:03.304Z,96924.94
2023-12-09T06:32:30.272Z,96922.50
2023-12-09T06:34:56.869Z,96927.41
2023-12-09T06:37:23.371Z,96937.34
2023-12-09T06:39:49.938Z,96941.63
2023-12-09T06:42:16.496Z,96934.31
2023-12-09T06:44:43.012Z,96933.72
2023-12-09T06:47:09.469Z,96929.81
2023-12-09T06:49:35.989Z,96923.31
2023-12-09T06:52:02.461Z,96914.56
2023-12-09T06:54:28.967Z,96906.63
2023-12-09T06:56:55.525Z,96904.78
2023-12-09T06:59:22.018Z,96907.47
2023-12-09T07:01:48.555Z,96906.41
2023-12-09T07:04:15.163Z,96918.84
2023-12-09T07:06:41.769Z,96922.91
2023-12-09T07:09:08.311Z,96930.47
2023-12-09T07:11:34.779Z,96932.50
2023-12-09T07:14:01.233Z,96915.59
2023-12-09T07:16:27.708Z,96916.38
2023-12-09T07:18:54.281Z,96907.44
2023-12-09T07:21:20.965Z,96902.94
2023-12-09T07:23:47.644Z,96899.59
2023-12-09T07:26:14.116Z,96902.94
2023-12-09T07:28:40.727Z,96906.22
2023-12-09T07:31:07.231Z,96912.66
2023-12-09T07:33:33.984Z,96922.50
2023-12-09T07:36:00.660Z,96924.75
2023-12-09T07:38:27.164Z,96919.84
2023-12-09T07:40:53.710Z,96919.03
2023-12-09T07:43:20.185Z,96934.28
2023-12-09T07:45:46.776Z,96931.25
2023-12-09T07:48:13.675Z,96927.19
2023-12-09T07:50:40.280Z,96926.81
2023-12-09T07:53:06.823Z,96911.13
2023-12-09T07:55:33.305Z,96912.16
2023-12-09T07:57:59.815Z,96910.53
2023-12-09T08:00:26.439Z,96920.44
2023-12-09T08:02:53.047Z,96927.22
2023-12-09T08:05:19.773Z,96929.41
2023-12-09T08:07:46.451Z,96929.78
2023-12-09T08:10:12.910Z,96911.88
2023-12-09T08:12:39.443Z,96916.22
2023-12-09T08:15:06.005Z,96917.81
2023-12-09T08:17:32.502Z,96911.13
2023-12-09T08:19:59.031Z,96910.31
2023-12-09T08:22:25.646Z,96917.00
2023-12-09T08:24:52.393Z,96910.69
2023-12-09T08:27:18.909Z,96905.03
2023-12-09T08:29:45.392Z,96913.56
2023-12-09T08:32:11.869Z,96908.06
2023-12-09T08:34:38.423Z,96910.06
2023-12-09T08:37:04.939Z,96923.75
2023-12-09T08:39:31.544Z,96918.84
2023-12-09T08:41:58.072Z,96913.97
2023-12-09T08:44:24.666Z,96909.69
2023-12-09T08:46:51.225Z,96910.28
2023-12-09T08:49:17.908Z,96899.31
2023-12-09T08:51:44.546Z,96903.16
2023-12-09T08:54:11.105Z,96901.53
2023-12-09T08:56:37.650Z,96888.69
2023-12-09T08:59:04.161Z,96887.66
2023-12-09T09:01:30.652Z,96873.16
2023-12-09T09:03:57.352Z,96865.59
2023-12-09T09:06:24.019Z,96870.41
2023-12-09T09:08:53.601Z,96877.03
2023-12-09T09:11:20.352Z,96873.59
2023-12-09T09:13:46.891Z,96871.13
2023-12-09T09:16:13.404Z,96863.28
2023-12-09T09:18:40.019Z,96866.97
2023-12-09T09:21:06.614Z,96866.44
2023-12-09T09:23:33.087Z,96867.19
2023-12-09T09:25:59.534Z,96871.56
2023-12-09T09:28:26.099Z,96871.50
2023-12-09T09:30:52.752Z,96876.34
2023-12-09T09:33:19.457Z,96873.19
2023-12-09T09:35:46.053Z,96881.19
2023-12-09T09:38:12.580Z,96870.03
2023-12-09T09:40:39.064Z,96880.13
2023-12-09T09:43:05.667Z,96878.72
2023-12-09T09:45:32.964Z,96886.56
2023-12-09T09:47:59.855Z,96873.09
2023-12-09T09:50:26.479Z,96873.75
2023-12-09T09:52:52.971Z,96869.09
2023-12-09T09:55:19.439Z,96861.66
2023-12-09T09:57:45.999Z,96849.72
2023-12-09T10:00:12.823Z,96846.84
2023-12-09T10:02:39.324Z,96845.06
2023-12-09T10:05:05.993Z,96836.66
2023-12-09T10:07:32.661Z,96839.88
2023-12-09T10:09:59.276Z,96833.97
2023-12-09T10:12:26.098Z,96829.69
2023-12-09T10:14:53.352Z,96838.16
2023-12-09T10:17:19.796Z,96822.41
2023-12-09T10:19:46.370Z,96821.34
2023-12-09T10:22:13.042Z,96815.56
2023-12-09T10:24:45.818Z,96817.28
2023-12-09T10:27:15.221Z,96813.44
2023-12-09T10:29:44.110Z,96809.25
2023-12-09T10:32:12.892Z,96811.19
2023-12-09T10:34:41.246Z,96820.31
2023-12-09T10:37:07.776Z,96801.66
2023-12-09T10:39:34.474Z,96800.25
2023-12-09T10:42:00.979Z,96798.75
2023-12-09T10:44:27.458Z,96797.13
2023-12-09T10:46:53.950Z,96798.09
2023-12-09T10:49:20.823Z,96779.22
2023-12-09T10:51:47.393Z,96775.41
2023-12-09T10:54:13.918Z,96765.53
2023-12-09T10:56:40.499Z,96754.13
2023-12-09T10:59:07.131Z,96750.44
2023-12-09T11:01:33.593Z,96752.00
2023-12-09T11:04:00.303Z,96739.84
2023-12-09T11:06:26.877Z,96740.00
2023-12-09T11:08:53.429Z,96754.91
2023-12-09T11:11:19.999Z,96757.13
2023-12-09T11:13:46.591Z,96754.47
2023-12-09T11:16:13.133Z,96743.47
2023-12-09T11:18:39.850Z,96744.50
2023-12-09T11:21:09.277Z,96743.53
2023-12-09T11:23:35.930Z,96755.88
2023-12-09T11:26:02.472Z,96752.94
2023-12-09T11:28:29.296Z,96762.91
2023-12-09T11:30:55.795Z,96759.84
2023-12-09T11:33:22.394Z,96753.03
2023-12-09T11:35:49.032Z,96750.53
2023-12-09T11:38:15.637Z,96748.34
2023-12-09T11:40:42.150Z,96732.66
2023-12-09T11:43:08.671Z,96731.34
2023-12-09T11:45:35.274Z,96722.91
2023-12-09T11:48:01.992Z,96722.38
2023-12-09T11:50:28.745Z,96715.22
2023-12-09T11:52:57.222Z,96709.19
2023-12-09T11:55:24.083Z,96707.47
2023-12-09T11:57:50.770Z,96701.16
2023-12-09T12:00:17.296Z,96699.00
2023-12-09T12:02:43.988Z,96681.78
2023-12-09T12:05:10.597Z,96680.72
2023-12-09T12:07:37.186Z,96675.56
2023-12-09T12:10:03.728Z,96666.16
2023-12-09T12:12:30.508Z,96676.44
2023-12-09T12:14:57.159Z,96662.50
2023-12-09T12:17:23.665Z,96650.25
2023-12-09T12:19:50.352Z,96638.63
2023-12-09T12:22:18.115Z,96655.41
2023-12-09T12:24:45.550Z,96658.19
2023-12-09T12:27:12.143Z,96659.28
2023-12-09T12:29:38.635Z,96650.78
2023-12-09T12:32:05.151Z,96636.94
2023-12-09T12:34:31.669Z,96618.56
2023-12-09T12:36:58.160Z,96619.63
2023-12-09T12:39:27.666Z,96599.41
2023-12-09T12:41:54.723Z,96600.13
2023-12-09T12:44:21.177Z,96590.44
2023-12-09T12:46:47.682Z,96581.84
2023-12-09T12:49:14.229Z,96580.19
2023-12-09T12:51:40.773Z,96571.53
2023-12-09T12:54:07.292Z,96556.53
2023-12-09T12:56:33.898Z,96560.81
2023-12-09T12:59:00.410Z,96553.19
2023-12-09T13:01:27.086Z,96551.03
2023-12-09T13:03:53.723Z,96556.03
2023-12-09T13:06:20.249Z,96556.78
2023-12-09T13:08:47.042Z,96552.78
2023-12-09T13:11:13.571Z,96549.78
2023-12-09T13:13:40.046Z,96548.78
2023-12-09T13:16:06.633Z,96547.50
2023-12-09T13:18:33.341Z,96536.78
2023-12-09T13:20:59.941Z,96535.31
2023-12-09T13:23:26.727Z,96518.19
2023-12-09T13:25:53.282Z,96523.88
2023-12-09T13:28:19.781Z,96524.16
2023-12-09T13:30:46.360Z,96506.72
2023-12-09T13:33:13.071Z,96500.47
2023-12-09T13:35:39.676Z,96516.00
2023-12-09T13:38:06.381Z,96508.81
2023-12-09T13:40:33.089Z,96505.78
2023-12-09T13:42:59.559Z,96494.81
2023-12-09T13:45:26.047Z,96490.31
2023-12-09T13:47:53.555Z,96493.22
2023-12-09T13:50:20.378Z,96483.50
2023-12-09T13:52:46.848Z,96478.38
2023-12-09T13:55:13.564Z,96473.34
2023-12-09T13:57:40.233Z,96477.97
2023-12-09T14:00:06.963Z,96485.94
2023-12-09T14:02:33.461Z,96475.94
2023-12-09T14:05:00.002Z,96454.31
2023-12-09T14:07:26.539Z,96454.38
2023-12-09T14:09:55.776Z,96453.75
2023-12-09T14:12:22.436Z,96459.59
2023-12-09T14:14:48.935Z,96455.78
2023-12-09T14:17:15.485Z,96464.53
2023-12-09T14:19:42.182Z,96462.31
2023-12-09T14:22:08.674Z,96458.84
2023-12-09T14:24:35.293Z,96456.13
2023-12-09T14:27:01.841Z,96446.78
2023-12-09T14:29:28.347Z,96450.19
2023-12-09T14:31:54.897Z,96456.59
2023-12-09T14:34:21.481Z,96468.94
2023-12-09T14:36:48.204Z,96457.66
2023-12-09T14:39:14.755Z,96463.22
2023-12-09T14:41:41.455Z,96459.34
2023-12-09T14:44:09.222Z,96442.22
2023-12-09T14:46:36.221Z,96441.84
2023-12-09T14:49:02.807Z,96448.53
2023-12-09T14:51:40.125Z,96430.84
2023-12-09T14:54:10.327Z,96424.13
2023-12-09T14:56:36.813Z,96431.66
2023-12-09T14:59:03.246Z,96428.53
2023-12-09T15:01:29.749Z,96416.22
2023-12-09T15:03:56.458Z,96409.53
2023-12-09T15:06:22.998Z,96403.38
2023-12-09T15:08:49.546Z,96393.25
2023-12-09T15:11:16.058Z,96386.47
2023-12-09T15:13:42.499Z,96372.34
2023-12-09T15:16:08.966Z,96380.56
2023-12-09T15:18:35.559Z,96370.34
2023-12-09T15:21:02.143Z,96377.38
2023-12-09T15:23:28.722Z,96367.25
2023-12-09T15:25:55.303Z,96370.72
2023-12-09T15:28:21.758Z,96359.19
2023-12-09T15:30:48.432Z,96349.63
2023-12-09T15:33:14.999Z,96349.69
2023-12-09T15:35:41.524Z,96338.94
2023-12-09T15:38:08.052Z,96344.53
2023-12-09T15:40:34.548Z,96351.41
2023-12-09T15:43:02.310Z,96337.22
2023-12-09T15:45:29.058Z,96338.59
2023-12-09T15:47:55.565Z,96324.09
2023-12-09T15:50:22.019Z,96335.97
2023-12-09T15:52:48.698Z,96321.94
2023-12-09T15:55:15.231Z,96329.78
2023-12-09T15:57:41.754Z,96339.31
2023-12-09T16:00:08.335Z,96323.31
2023-12-09T16:02:34.876Z,96329.84
2023-12-09T16:05:01.641Z,96325.66
2023-12-09T16:07:28.214Z,96318.19
2023-12-09T16:09:58.156Z,96298.47
2023-12-09T16:12:25.178Z,96286.22
2023-12-09T16:14:51.686Z,96290.06
2023-12-09T16:17:18.242Z,96278.06
2023-12-09T16:19:45.157Z,96278.28
2023-12-09T16:22:11.709Z,96290.59
2023-12-09T16:24:38.366Z,96282.66
2023-12-09T16:27:04.974Z,96289.25
2023-12-09T16:29:31.426Z,96289.75
2023-12-09T16:31:57.899Z,96291.88
2023-12-09T16:34:24.579Z,96292.09
2023-12-09T16:36:51.175Z,96282.09
2023-12-09T16:39:19.999Z,96269.41
2023-12-09T16:41:46.502Z,96267.53
2023-12-09T16:44:12.945Z,96260.72
2023-12-09T16:46:39.469Z,96244.09
2023-12-09T16:49:05.946Z,96254.06
2023-12-09T16:51:32.849Z,96257.13
2023-12-09T16:53:59.572Z,96255.22
2023-12-09T16:56:26.121Z,96263.88
2023-12-09T16:58:52.564Z,96272.09
2023-12-09T17:01:19.247Z,96252.31
2023-12-09T17:03:45.956Z,96231.88
2023-12-09T17:06:12.598Z,96216.44
2023-12-09T17:08:40.309Z,96207.84
2023-12-09T17:11:06.744Z,96215.59
2023-12-09T17:13:35.402Z,96229.72
2023-12-09T17:16:01.885Z,96223.66
2023-12-09T17:18:28.609Z,96240.44
2023-12-09T17:20:55.280Z,96203.81
2023-12-09T17:23:22.020Z,96186.09
2023-12-09T17:25:48.519Z,96204.59
2023-12-09T17:28:17.352Z,96201.09
2023-12-09T17:30:44.150Z,96198.91
2023-12-09T17:33:10.738Z,96209.53
2023-12-09T17:35:37.548Z,96222.78
2023-12-09T17:38:04.140Z,96227.97
2023-12-09T17:40:30.724Z,96209.31
2023-12-09T17:43:00.221Z,96194.91
2023-12-09T17:45:26.777Z,96193.03
2023-12-09T17:47:53.297Z,96192.66
2023-12-09T17:50:19.802Z,96238.75
2023-12-09T17:52:46.352Z,96251.31
2023-12-09T17:55:12.833Z,96250.25
2023-12-09T17:57:39.440Z,96269.53
2023-12-09T18:00:06.174Z,96278.16
2023-12-09T18:02:32.620Z,96280.66
2023-12-09T18:04:59.142Z,96286.19
2023-12-09T18:07:25.770Z,96277.13
2023-12-09T18:09:55.663Z,96294.34
2023-12-09T18:12:22.215Z,96305.00
2023-12-09T18:14:48.884Z,96324.81
2023-12-09T18:17:15.479Z,96331.50
2023-12-09T18:19:42.113Z,96333.06
2023-12-09T18:22:08.660Z,96318.03
2023-12-09T18:24:35.504Z,96292.78
2023-12-09T18:27:03.123Z,96274.91
2023-12-09T18:29:29.561Z,96232.69
2023-12-09T18:31:56.040Z,96217.72
2023-12-09T18:34:22.596Z,96205.03
2023-12-09T18:36:49.255Z,96212.88
2023-12-09T18:39:15.783Z,96219.63
2023-12-09T18:41:42.560Z,96231.31
2023-12-09T18:44:09.001Z,96228.31
2023-12-09T18:46:35.471Z,96226.66
2023-12-09T18:49:02.097Z,96232.16
2023-12-09T18:51:28.801Z,96220.91
2023-12-09T18:53:55.247Z,96181.81
2023-12-09T18:56:21.702Z,96224.06
2023-12-09T18:58:48.430Z,96242.69
2023-12-09T19:01:14.942Z,96246.03
2023-12-09T19:03:41.713Z,96248.97
2023-12-09T19:06:08.219Z,96254.16
2023-12-09T19:08:34.796Z,96259.06
2023-12-09T19:11:01.298Z,96290.47
2023-12-09T19:13:27.825Z,96283.22
2023-12-09T19:15:54.334Z,96276.19
2023-12-09T19:18:20.884Z,96285.56
2023-12-09T19:20:47.433Z,96287.47
2023-12-09T19:23:13.894Z,96290.72
2023-12-09T19:25:40.420Z,96282.25
2023-12-09T19:28:07.002Z,96267.41
2023-12-09T19:30:33.539Z,96263.47
2023-12-09T19:33:00.048Z,96284.66
2023-12-09T19:35:26.614Z,96285.91
2023-12-09T19:37:55.712Z,96304.00
2023-12-09T19:40:22.217Z,96320.50
2023-12-09T19:42:48.862Z,96350.28
2023-12-09T19:45:15.934Z,96353.41
2023-12-09T19:47:43.657Z,96373.69
2023-12-09T19:50:10.130Z,96388.66
2023-12-09T19:52:36.588Z,96361.91
2023-12-09T19:55:03.026Z,96347.84
2023-12-09T19:57:29.669Z,96313.91
2023-12-09T19:59:56.304Z,96324.38
2023-12-09T20:02:22.802Z,96327.63
2023-12-09T20:04:52.576Z,96346.56
2023-12-09T20:07:19.261Z,96349.41
2023-12-09T20:09:46.118Z,96335.50
2023-12-09T20:12:12.645Z,96332.84
2023-12-09T20:14:41.428Z,96319.34
2023-12-09T20:17:07.933Z,96350.84
2023-12-09T20:19:34.503Z,96344.47
2023-12-09T20:22:01.091Z,96348.34
2023-12-09T20:24:27.848Z,96343.13
2023-12-09T20:26:56.409Z,96357.56
2023-12-09T20:29:23.912Z,96363.03
2023-12-09T20:31:50.339Z,96375.41
2023-12-09T20:34:16.960Z,96379.03
2023-12-09T20:36:43.592Z,96381.28
2023-12-09T20:39:10.288Z,96384.91
2023-12-09T20:41:36.850Z,96393.28
2023-12-09T20:44:03.306Z,96397.41
2023-12-09T20:46:29.817Z,96401.28
2023-12-09T20:48:56.323Z,96419.66
2023-12-09T20:51:22.923Z,96427.19
2023-12-09T20:53:49.522Z,96426.94
2023-12-09T20:56:16.327Z,96427.00
2023-12-09T20:58:42.789Z,96456.38
2023-12-09T21:01:12.607Z,96456.47
2023-12-09T21:03:39.292Z,96473.91
2023-12-09T21:06:05.923Z,96453.88
2023-12-09T21:08:32.492Z,96438.03
2023-12-09T21:10:59.048Z,96448.91
2023-12-09T21:13:25.641Z,96450.03
2023-12-09T21:15:52.104Z,96438.75
2023-12-09T21:18:18.780Z,96453.66
2023-12-09T21:20:45.348Z,96469.75
2023-12-09T21:23:11.804Z,96464.72
2023-12-09T21:25:38.244Z,96481.53
2023-12-09T21:28:07.235Z,96489.19
2023-12-09T21:30:34.599Z,96504.78
2023-12-09T21:33:01.208Z,96497.25
2023-12-09T21:35:27.751Z,96502.28
2023-12-09T21:37:54.194Z,96491.13
2023-12-09T21:40:20.761Z,96493.69
2023-12-09T21:42:47.275Z,96487.53
2023-12-09T21:45:15.568Z,96494.38
2023-12-09T21:47:42.352Z,96507.16
2023-12-09T21:50:09.006Z,96531.69
2023-12-09T21:52:35.457Z,96512.22
2023-12-09T21:55:01.886Z,96519.28
2023-12-09T21:57:28.400Z,96534.50
2023-12-09T21:59:55.072Z,96526.72
2023-12-09T22:02:21.589Z,96542.97
2023-12-09T22:04:48.094Z,96577.88
2023-12-09T22:07:14.567Z,96572.81
2023-12-09T22:09:41.129Z,96601.13
2023-12-09T22:12:07.849Z,96629.59
2023-12-09T22:14:35.326Z,96648.00
2023-12-09T22:17:01.793Z,96630.84
2023-12-09T22:19:28.378Z,96636.41
2023-12-09T22:21:55.154Z,96657.28
2023-12-09T22:24:21.629Z,96675.56
2023-12-09T22:26:48.093Z,96703.19
2023-12-09T22:29:14.536Z,96748.09
2023-12-09T22:31:41.057Z,96795.16
2023-12-09T22:34:07.628Z,96813.50
2023-12-09T22:36:34.172Z,96831.91
2023-12-09T22:39:00.618Z,96848.88
2023-12-09T22:41:27.083Z,96856.69
2023-12-09T22:43:53.653Z,96890.22
2023-12-09T22:46:20.367Z,96927.75
2023-12-09T22:48:46.919Z,96936.44
2023-12-09T22:51:13.916Z,96944.16
2023-12-09T22:53:40.479Z,96887.47
2023-12-09T22:56:13.003Z,96868.94
2023-12-09T22:58:40.898Z,96872.19
2023-12-09T23:01:07.613Z,96887.56
2023-12-09T23:03:34.242Z,96927.25
2023-12-09T23:06:00.862Z,96940.28
2023-12-09T23:08:31.275Z,96913.81
2023-12-09T23:10:57.943Z,96912.66
2023-12-09T23:13:24.441Z,96912.53
2023-12-09T23:15:50.912Z,96911.53
2023-12-09T23:18:17.752Z,96934.72
2023-12-09T23:20:44.268Z,96943.06
2023-12-09T23:23:10.880Z,96947.59
2023-12-09T23:25:37.369Z,96941.25
2023-12-09T23:28:03.867Z,96921.28
2023-12-09T23:30:30.349Z,96938.81
2023-12-09T23:32:56.933Z,96930.88
2023-12-09T23:35:23.468Z,96954.59
2023-12-09T23:37:49.897Z,96991.13
2023-12-09T23:40:16.406Z,96977.66
2023-12-09T23:42:42.950Z,96987.22
2023-12-09T23:45:09.455Z,96992.13
2023-12-09T23:47:36.140Z,96984.00
2023-12-09T23:50:02.679Z,96995.56
2023-12-09T23:52:29.437Z,97000.84
2023-12-09T23:54:56.091Z,97004.13
2023-12-09T23:57:22.569Z,96995.00
2023-12-09T23:59:49.050Z,96998.16
